Philip, SD

8:56 PM MDT on September 24, 2016 (GMT -0600)
Philip | | Change Station
Active Advisory: Wind Advisory

Elev 2208 ft 44.05 °N, 101.60 °W | Updated 1 hour ago

Partly Cloudy
Partly Cloudy
54 °F
Feels Like 54 °F
N
14
Wind Variable Wind from West

Today
High -- | Low -- °F
--% Chance of Precip.
Yesterday
High -- | Low -- °F
Precip. -- in
Pressure 29.93 in
Visibility 10.0 miles
Clouds Few 6000 ft
Dew Point 40 °F
Humidity 59%
Rainfall 0.00 in
Snow Depth Not available.
6:36 AM 6:39 PM
Waning Crescent, 32% visible
METAR KPHP 250155Z AUTO 28012KT 10SM FEW060 12/04 A2994 RMK AO2 SLP135 T01220044 $
Pressure 29.93 in
Visibility 10.0 miles
Clouds Few 6000 ft
Dew Point 40 °F
Humidity 59%
Rainfall 0.00 in
Snow Depth Not available.
6:36 AM 6:39 PM
Waning Crescent, 32% visible
METAR KPHP 250155Z AUTO 28012KT 10SM FEW060 12/04 A2994 RMK AO2 SLP135 T01220044 $

10-Day Weather Forecast

Almanac

Astronomy

Sep. 24, 2016 Rise Set
Actual Time
Civil Twilight
Nautical Twilight
Astronomical Twilight
Moon
Length of Visible Light
Length of Day
Tomorrow will be .
, % of the Moon is Illuminated

Today's Extremes

State Highs State Lows

Community

WunderPhotos

Upload Photos

1,941,529 photos uploaded!

WunderBlog® & News

Nearby

Air Quality

  Air Quality AQ Index Pollutant
Not available.

Snow Depth

Station Depth Elevation

Earthquake Activity

City Distance Mag. Time & Date
Minimum magnitude displayed is 2.5.

Coastal Water Temperatures

Place Temperature

Stations

Nearby Weather Stations

Station Location Temp. Windchill Dew Point Humidity Wind Precip. Elev Updated Type
                   

Watches & Warnings

Wind Advisory
Issued: 2:35 PM MDT Sep. 24, 2016 – National Weather Service

... Wind Advisory remains in effect from 6 PM this evening to 6 PM
MDT Sunday...

* timing... gusty northwest winds will develop behind a cold front
this evening. The gusty winds will continue overnight into
Sunday.

* Winds... northwest 25 to 35 mph with gusts up to 50 mph.

* Impacts... sudden wind gusts can cause drivers to lose
control... especially in lightweight or high profile vehicles.
Strong winds can cause blowing dust... reduced visibility... and
flying debris.

Precautionary/preparedness actions...

A Wind Advisory means 30 mph winds... or gusts over 45 mph... are
expected or occurring.